sensor_id;sensor_type;location;lat;lon;timestamp;temperature;humidity
64924;HTU21D;51436;44.692;39.214;2023-12-20T00:01:07;10.34;70.86
64924;HTU21D;51436;44.692;39.214;2023-12-20T00:03:34;10.33;70.89
64924;HTU21D;51436;44.692;39.214;2023-12-20T00:06:00;10.33;70.89
64924;HTU21D;51436;44.692;39.214;2023-12-20T00:08:26;10.33;70.88
64924;HTU21D;51436;44.692;39.214;2023-12-20T00:10:53;10.31;70.87
64924;HTU21D;51436;44.692;39.214;2023-12-20T00:13:19;10.30;70.89
64924;HTU21D;51436;44.692;39.214;2023-12-20T00:15:45;10.30;70.89
64924;HTU21D;51436;44.692;39.214;2023-12-20T00:18:12;10.29;70.90
64924;HTU21D;51436;44.692;39.214;2023-12-20T00:20:38;10.28;70.90
64924;HTU21D;51436;44.692;39.214;2023-12-20T00:23:05;10.27;70.94
64924;HTU21D;51436;44.692;39.214;2023-12-20T00:25:31;10.23;71.01
64924;HTU21D;51436;44.692;39.214;2023-12-20T00:27:58;10.22;71.04
64924;HTU21D;51436;44.692;39.214;2023-12-20T00:30:24;10.20;71.06
64924;HTU21D;51436;44.692;39.214;2023-12-20T00:32:51;10.16;71.13
64924;HTU21D;51436;44.692;39.214;2023-12-20T00:35:18;10.16;71.14
64924;HTU21D;51436;44.692;39.214;2023-12-20T00:37:45;10.15;71.14
64924;HTU21D;51436;44.692;39.214;2023-12-20T00:40:14;10.16;71.12
64924;HTU21D;51436;44.692;39.214;2023-12-20T00:42:41;10.16;71.11
64924;HTU21D;51436;44.692;39.214;2023-12-20T00:45:07;10.12;71.17
64924;HTU21D;51436;44.692;39.214;2023-12-20T00:47:34;10.10;71.21
64924;HTU21D;51436;44.692;39.214;2023-12-20T00:50:01;10.06;71.33
64924;HTU21D;51436;44.692;39.214;2023-12-20T00:52:27;10.03;71.37
64924;HTU21D;51436;44.692;39.214;2023-12-20T00:54:59;9.97;71.46
64924;HTU21D;51436;44.692;39.214;2023-12-20T00:57:26;9.93;71.55
64924;HTU21D;51436;44.692;39.214;2023-12-20T00:59:52;9.89;71.62
64924;HTU21D;51436;44.692;39.214;2023-12-20T01:02:18;9.86;71.66
64924;HTU21D;51436;44.692;39.214;2023-12-20T01:04:45;9.84;71.66
64924;HTU21D;51436;44.692;39.214;2023-12-20T01:07:11;9.84;71.62
64924;HTU21D;51436;44.692;39.214;2023-12-20T01:09:38;9.84;71.60
64924;HTU21D;51436;44.692;39.214;2023-12-20T01:12:05;9.85;71.56
64924;HTU21D;51436;44.692;39.214;2023-12-20T01:14:31;9.88;71.51
64924;HTU21D;51436;44.692;39.214;2023-12-20T01:16:58;9.86;71.52
64924;HTU21D;51436;44.692;39.214;2023-12-20T01:19:24;9.86;71.51
64924;HTU21D;51436;44.692;39.214;2023-12-20T01:21:57;9.90;71.42
64924;HTU21D;51436;44.692;39.214;2023-12-20T01:24:24;9.93;71.34
64924;HTU21D;51436;44.692;39.214;2023-12-20T01:26:50;9.94;71.30
64924;HTU21D;51436;44.692;39.214;2023-12-20T01:29:39;9.94;71.26
64924;HTU21D;51436;44.692;39.214;2023-12-20T01:32:06;9.96;71.25
64924;HTU21D;51436;44.692;39.214;2023-12-20T01:34:32;10.01;71.16
64924;HTU21D;51436;44.692;39.214;2023-12-20T01:36:58;10.04;71.06
64924;HTU21D;51436;44.692;39.214;2023-12-20T01:39:26;10.07;71.03
64924;HTU21D;51436;44.692;39.214;2023-12-20T01:41:52;10.10;70.94
64924;HTU21D;51436;44.692;39.214;2023-12-20T01:44:22;10.15;70.85
64924;HTU21D;51436;44.692;39.214;2023-12-20T01:46:48;10.19;70.79
64924;HTU21D;51436;44.692;39.214;2023-12-20T01:49:21;10.23;70.74
64924;HTU21D;51436;44.692;39.214;2023-12-20T01:51:48;10.25;70.68
64924;HTU21D;51436;44.692;39.214;2023-12-20T01:54:14;10.28;70.66
64924;HTU21D;51436;44.692;39.214;2023-12-20T01:56:41;10.30;70.67
64924;HTU21D;51436;44.692;39.214;2023-12-20T01:59:08;10.30;70.65
64924;HTU21D;51436;44.692;39.214;2023-12-20T02:01:35;10.31;70.70
64924;HTU21D;51436;44.692;39.214;2023-12-20T02:04:02;10.33;70.69
64924;HTU21D;51436;44.692;39.214;2023-12-20T02:06:56;10.31;70.70
64924;HTU21D;51436;44.692;39.214;2023-12-20T02:09:23;10.34;70.69
64924;HTU21D;51436;44.692;39.214;2023-12-20T02:11:49;10.35;70.68
64924;HTU21D;51436;44.692;39.214;2023-12-20T02:14:16;10.39;70.61
64924;HTU21D;51436;44.692;39.214;2023-12-20T02:16:46;10.40;70.61
64924;HTU21D;51436;44.692;39.214;2023-12-20T02:19:14;10.41;70.61
64924;HTU21D;51436;44.692;39.214;2023-12-20T02:21:44;10.37;70.67
64924;HTU21D;51436;44.692;39.214;2023-12-20T02:24:10;10.40;70.64
64924;HTU21D;51436;44.692;39.214;2023-12-20T02:26:37;10.42;70.60
64924;HTU21D;51436;44.692;39.214;2023-12-20T02:29:03;10.45;70.55
64924;HTU21D;51436;44.692;39.214;2023-12-20T02:31:30;10.46;70.53
64924;HTU21D;51436;44.692;39.214;2023-12-20T02:33:56;10.48;70.52
64924;HTU21D;51436;44.692;39.214;2023-12-20T02:36:22;10.48;70.52
64924;HTU21D;51436;44.692;39.214;2023-12-20T02:38:49;10.46;70.54
64924;HTU21D;51436;44.692;39.214;2023-12-20T02:41:16;10.45;70.58
64924;HTU21D;51436;44.692;39.214;2023-12-20T02:43:44;10.45;70.59
64924;HTU21D;51436;44.692;39.214;2023-12-20T02:46:11;10.43;70.65
64924;HTU21D;51436;44.692;39.214;2023-12-20T02:48:37;10.40;70.74
64924;HTU21D;51436;44.692;39.214;2023-12-20T02:51:04;10.41;70.77
64924;HTU21D;51436;44.692;39.214;2023-12-20T02:53:30;10.39;70.78
64924;HTU21D;51436;44.692;39.214;2023-12-20T02:55:57;10.35;70.87
64924;HTU21D;51436;44.692;39.214;2023-12-20T02:58:23;10.31;70.97
64924;HTU21D;51436;44.692;39.214;2023-12-20T03:00:51;10.28;71.00
64924;HTU21D;51436;44.692;39.214;2023-12-20T03:03:17;10.24;71.10
64924;HTU21D;51436;44.692;39.214;2023-12-20T03:05:45;10.18;71.20
64924;HTU21D;51436;44.692;39.214;2023-12-20T03:08:12;10.13;71.29
64924;HTU21D;51436;44.692;39.214;2023-12-20T03:10:38;10.12;71.35
64924;HTU21D;51436;44.692;39.214;2023-12-20T03:13:05;10.05;71.42
64924;HTU21D;51436;44.692;39.214;2023-12-20T03:15:37;10.01;71.47
64924;HTU21D;51436;44.692;39.214;2023-12-20T03:18:06;9.97;71.55
64924;HTU21D;51436;44.692;39.214;2023-12-20T03:20:32;9.93;71.61
64924;HTU21D;51436;44.692;39.214;2023-12-20T03:23:00;9.89;71.64
64924;HTU21D;51436;44.692;39.214;2023-12-20T03:25:27;9.85;71.67
64924;HTU21D;51436;44.692;39.214;2023-12-20T03:27:53;9.81;71.74
64924;HTU21D;51436;44.692;39.214;2023-12-20T03:30:20;9.80;71.76
64924;HTU21D;51436;44.692;39.214;2023-12-20T03:32:47;9.76;71.81
64924;HTU21D;51436;44.692;39.214;2023-12-20T03:35:13;9.72;71.87
64924;HTU21D;51436;44.692;39.214;2023-12-20T03:37:40;9.70;71.86
64924;HTU21D;51436;44.692;39.214;2023-12-20T03:40:06;9.65;71.93
64924;HTU21D;51436;44.692;39.214;2023-12-20T03:42:33;9.61;72.00
64924;HTU21D;51436;44.692;39.214;2023-12-20T03:44:59;9.59;72.02
64924;HTU21D;51436;44.692;39.214;2023-12-20T03:47:26;9.53;72.11
64924;HTU21D;51436;44.692;39.214;2023-12-20T03:49:54;9.52;72.06
64924;HTU21D;51436;44.692;39.214;2023-12-20T03:52:26;9.54;72.00
64924;HTU21D;51436;44.692;39.214;2023-12-20T03:54:53;9.56;71.95
64924;HTU21D;51436;44.692;39.214;2023-12-20T03:57:19;9.59;71.87
64924;HTU21D;51436;44.692;39.214;2023-12-20T03:59:45;9.62;71.78
64924;HTU21D;51436;44.692;39.214;2023-12-20T04:02:13;9.66;71.69
64924;HTU21D;51436;44.692;39.214;2023-12-20T04:04:39;9.65;71.67
64924;HTU21D;51436;44.692;39.214;2023-12-20T04:07:05;9.63;71.74
64924;HTU21D;51436;44.692;39.214;2023-12-20T04:09:32;9.61;71.80
64924;HTU21D;51436;44.692;39.214;2023-12-20T04:12:01;9.60;71.84
64924;HTU21D;51436;44.692;39.214;2023-12-20T04:14:27;9.55;71.94
64924;HTU21D;51436;44.692;39.214;2023-12-20T04:16:54;9.52;71.99
64924;HTU21D;51436;44.692;39.214;2023-12-20T04:19:20;9.50;72.07
64924;HTU21D;51436;44.692;39.214;2023-12-20T04:21:46;9.49;72.05
64924;HTU21D;51436;44.692;39.214;2023-12-20T04:24:13;9.49;72.03
64924;HTU21D;51436;44.692;39.214;2023-12-20T04:26:39;9.41;72.13
64924;HTU21D;51436;44.692;39.214;2023-12-20T04:29:06;9.39;72.19
64924;HTU21D;51436;44.692;39.214;2023-12-20T04:31:32;9.37;72.23
64924;HTU21D;51436;44.692;39.214;2023-12-20T04:33:58;9.35;72.25
64924;HTU21D;51436;44.692;39.214;2023-12-20T04:36:24;9.36;72.17
64924;HTU21D;51436;44.692;39.214;2023-12-20T04:38:53;9.37;72.11
64924;HTU21D;51436;44.692;39.214;2023-12-20T04:41:19;9.36;72.13
64924;HTU21D;51436;44.692;39.214;2023-12-20T04:43:52;9.36;72.09
64924;HTU21D;51436;44.692;39.214;2023-12-20T04:46:18;9.36;72.10
64924;HTU21D;51436;44.692;39.214;2023-12-20T04:48:44;9.38;72.05
64924;HTU21D;51436;44.692;39.214;2023-12-20T04:51:11;9.40;71.96
64924;HTU21D;51436;44.692;39.214;2023-12-20T04:53:37;9.40;71.94
64924;HTU21D;51436;44.692;39.214;2023-12-20T04:56:04;9.40;71.96
64924;HTU21D;51436;44.692;39.214;2023-12-20T04:58:30;9.42;71.89
64924;HTU21D;51436;44.692;39.214;2023-12-20T05:00:56;9.45;71.83
64924;HTU21D;51436;44.692;39.214;2023-12-20T05:03:23;9.47;71.80
64924;HTU21D;51436;44.692;39.214;2023-12-20T05:05:49;9.49;71.77
64924;HTU21D;51436;44.692;39.214;2023-12-20T05:08:16;9.49;71.75
64924;HTU21D;51436;44.692;39.214;2023-12-20T05:10:42;9.48;71.79
64924;HTU21D;51436;44.692;39.214;2023-12-20T05:13:08;9.46;71.79
64924;HTU21D;51436;44.692;39.214;2023-12-20T05:15:35;9.46;71.80
64924;HTU21D;51436;44.692;39.214;2023-12-20T05:18:01;9.39;71.90
64924;HTU21D;51436;44.692;39.214;2023-12-20T05:20:28;9.35;72.01
64924;HTU21D;51436;44.692;39.214;2023-12-20T05:22:54;9.27;72.17
64924;HTU21D;51436;44.692;39.214;2023-12-20T05:25:28;9.24;72.19
64924;HTU21D;51436;44.692;39.214;2023-12-20T05:27:55;9.20;72.32
64924;HTU21D;51436;44.692;39.214;2023-12-20T05:30:22;9.24;72.23
64924;HTU21D;51436;44.692;39.214;2023-12-20T05:32:49;9.30;72.08
64924;HTU21D;51436;44.692;39.214;2023-12-20T05:35:21;9.35;71.90
64924;HTU21D;51436;44.692;39.214;2023-12-20T05:37:49;9.36;71.83
64924;HTU21D;51436;44.692;39.214;2023-12-20T05:40:16;9.35;71.83
64924;HTU21D;51436;44.692;39.214;2023-12-20T05:42:48;9.37;71.78
64924;HTU21D;51436;44.692;39.214;2023-12-20T05:45:21;9.39;71.72
64924;HTU21D;51436;44.692;39.214;2023-12-20T05:47:53;9.40;71.65
64924;HTU21D;51436;44.692;39.214;2023-12-20T05:50:40;9.34;71.77
64924;HTU21D;51436;44.692;39.214;2023-12-20T05:53:09;9.33;71.81
64924;HTU21D;51436;44.692;39.214;2023-12-20T05:55:35;9.33;71.82
64924;HTU21D;51436;44.692;39.214;2023-12-20T05:58:02;9.38;71.74
64924;HTU21D;51436;44.692;39.214;2023-12-20T06:00:29;9.46;71.54
64924;HTU21D;51436;44.692;39.214;2023-12-20T06:02:55;9.54;71.35
64924;HTU21D;51436;44.692;39.214;2023-12-20T06:05:21;9.62;71.22
64924;HTU21D;51436;44.692;39.214;2023-12-20T06:07:48;9.70;71.07
64924;HTU21D;51436;44.692;39.214;2023-12-20T06:10:15;9.79;70.92
64924;HTU21D;51436;44.692;39.214;2023-12-20T06:12:42;9.88;70.78
64924;HTU21D;51436;44.692;39.214;2023-12-20T06:15:11;9.95;70.64
64924;HTU21D;51436;44.692;39.214;2023-12-20T06:17:37;10.01;70.54
64924;HTU21D;51436;44.692;39.214;2023-12-20T06:20:04;10.09;70.43
64924;HTU21D;51436;44.692;39.214;2023-12-20T06:22:35;10.15;70.33
64924;HTU21D;51436;44.692;39.214;2023-12-20T06:25:23;10.22;70.23
64924;HTU21D;51436;44.692;39.214;2023-12-20T06:27:49;10.29;70.14
64924;HTU21D;51436;44.692;39.214;2023-12-20T06:30:16;10.38;70.01
64924;HTU21D;51436;44.692;39.214;2023-12-20T06:32:42;10.46;69.88
64924;HTU21D;51436;44.692;39.214;2023-12-20T06:35:09;10.54;69.77
64924;HTU21D;51436;44.692;39.214;2023-12-20T06:37:35;10.63;69.67
64924;HTU21D;51436;44.692;39.214;2023-12-20T06:40:09;10.71;69.52
64924;HTU21D;51436;44.692;39.214;2023-12-20T06:42:36;10.83;69.31
64924;HTU21D;51436;44.692;39.214;2023-12-20T06:45:03;10.95;69.13
64924;HTU21D;51436;44.692;39.214;2023-12-20T06:47:30;11.02;68.99
64924;HTU21D;51436;44.692;39.214;2023-12-20T06:49:56;11.08;68.96
64924;HTU21D;51436;44.692;39.214;2023-12-20T06:52:23;11.13;68.91
64924;HTU21D;51436;44.692;39.214;2023-12-20T06:54:49;11.20;68.81
64924;HTU21D;51436;44.692;39.214;2023-12-20T06:57:16;11.23;68.81
64924;HTU21D;51436;44.692;39.214;2023-12-20T06:59:42;11.26;68.79
64924;HTU21D;51436;44.692;39.214;2023-12-20T07:02:14;11.33;68.76
64924;HTU21D;51436;44.692;39.214;2023-12-20T07:04:41;11.41;68.61
64924;HTU21D;51436;44.692;39.214;2023-12-20T07:07:07;11.54;68.43
64924;HTU21D;51436;44.692;39.214;2023-12-20T07:09:34;11.66;68.20
64924;HTU21D;51436;44.692;39.214;2023-12-20T07:12:00;11.77;68.03
64924;HTU21D;51436;44.692;39.214;2023-12-20T07:14:27;11.86;67.89
64924;HTU21D;51436;44.692;39.214;2023-12-20T07:16:53;11.91;67.84
64924;HTU21D;51436;44.692;39.214;2023-12-20T07:19:20;11.91;67.90
64924;HTU21D;51436;44.692;39.214;2023-12-20T07:21:46;11.97;67.84
64924;HTU21D;51436;44.692;39.214;2023-12-20T07:24:12;11.98;67.84
64924;HTU21D;51436;44.692;39.214;2023-12-20T07:26:40;12.02;67.84
64924;HTU21D;51436;44.692;39.214;2023-12-20T07:29:12;12.06;67.82
64924;HTU21D;51436;44.692;39.214;2023-12-20T07:31:38;12.13;67.72
64924;HTU21D;51436;44.692;39.214;2023-12-20T07:34:05;12.25;67.54
64924;HTU21D;51436;44.692;39.214;2023-12-20T07:36:31;12.33;67.39
64924;HTU21D;51436;44.692;39.214;2023-12-20T07:38:58;12.37;67.35
64924;HTU21D;51436;44.692;39.214;2023-12-20T07:41:24;12.37;67.39
64924;HTU21D;51436;44.692;39.214;2023-12-20T07:43:53;12.37;67.47
64924;HTU21D;51436;44.692;39.214;2023-12-20T07:46:22;12.44;67.41
64924;HTU21D;51436;44.692;39.214;2023-12-20T07:48:49;12.51;67.27
64924;HTU21D;51436;44.692;39.214;2023-12-20T07:51:22;12.56;67.20
64924;HTU21D;51436;44.692;39.214;2023-12-20T07:53:48;12.56;67.24
64924;HTU21D;51436;44.692;39.214;2023-12-20T07:56:19;12.55;67.33
64924;HTU21D;51436;44.692;39.214;2023-12-20T07:58:46;12.56;67.33
64924;HTU21D;51436;44.692;39.214;2023-12-20T08:01:16;12.58;67.30
64924;HTU21D;51436;44.692;39.214;2023-12-20T08:03:44;12.64;67.20
64924;HTU21D;51436;44.692;39.214;2023-12-20T08:06:10;12.69;67.14
64924;HTU21D;51436;44.692;39.214;2023-12-20T08:08:37;12.70;67.10
64924;HTU21D;51436;44.692;39.214;2023-12-20T08:11:03;12.74;67.05
64924;HTU21D;51436;44.692;39.214;2023-12-20T08:13:29;12.75;67.05
64924;HTU21D;51436;44.692;39.214;2023-12-20T08:15:56;12.76;67.02
64924;HTU21D;51436;44.692;39.214;2023-12-20T08:18:22;12.78;67.04
64924;HTU21D;51436;44.692;39.214;2023-12-20T08:20:49;12.77;67.04
64924;HTU21D;51436;44.692;39.214;2023-12-20T08:23:18;12.79;67.03
64924;HTU21D;51436;44.692;39.214;2023-12-20T08:25:46;12.80;67.01
64924;HTU21D;51436;44.692;39.214;2023-12-20T08:28:14;12.80;67.01
64924;HTU21D;51436;44.692;39.214;2023-12-20T08:30:43;12.82;66.98
64924;HTU21D;51436;44.692;39.214;2023-12-20T08:33:10;12.84;66.95
64924;HTU21D;51436;44.692;39.214;2023-12-20T08:35:58;12.87;66.90
64924;HTU21D;51436;44.692;39.214;2023-12-20T08:38:47;12.88;66.87
64924;HTU21D;51436;44.692;39.214;2023-12-20T08:41:14;12.91;66.79
64924;HTU21D;51436;44.692;39.214;2023-12-20T08:43:46;12.94;66.74
64924;HTU21D;51436;44.692;39.214;2023-12-20T08:46:15;12.97;66.66
64924;HTU21D;51436;44.692;39.214;2023-12-20T08:48:41;13.01;66.60
64924;HTU21D;51436;44.692;39.214;2023-12-20T08:51:08;13.03;66.55
64924;HTU21D;51436;44.692;39.214;2023-12-20T08:53:35;13.07;66.49
64924;HTU21D;51436;44.692;39.214;2023-12-20T08:56:01;13.11;66.43
64924;HTU21D;51436;44.692;39.214;2023-12-20T08:58:28;13.15;66.38
64924;HTU21D;51436;44.692;39.214;2023-12-20T09:00:54;13.17;66.36
64924;HTU21D;51436;44.692;39.214;2023-12-20T09:03:21;13.19;66.32
64924;HTU21D;51436;44.692;39.214;2023-12-20T09:05:50;13.24;66.24
64924;HTU21D;51436;44.692;39.214;2023-12-20T09:08:16;13.26;66.20
64924;HTU21D;51436;44.692;39.214;2023-12-20T09:10:43;13.26;66.20
64924;HTU21D;51436;44.692;39.214;2023-12-20T09:13:10;13.30;66.14
64924;HTU21D;51436;44.692;39.214;2023-12-20T09:15:36;13.31;66.13
64924;HTU21D;51436;44.692;39.214;2023-12-20T09:18:03;13.32;66.11
64924;HTU21D;51436;44.692;39.214;2023-12-20T09:20:29;13.38;66.01
64924;HTU21D;51436;44.692;39.214;2023-12-20T09:22:56;13.40;65.97
64924;HTU21D;51436;44.692;39.214;2023-12-20T09:25:22;13.43;65.93
64924;HTU21D;51436;44.692;39.214;2023-12-20T09:27:49;13.43;65.91
64924;HTU21D;51436;44.692;39.214;2023-12-20T09:30:15;13.47;65.84
64924;HTU21D;51436;44.692;39.214;2023-12-20T09:32:45;13.51;65.78
64924;HTU21D;51436;44.692;39.214;2023-12-20T09:35:11;13.51;65.75
64924;HTU21D;51436;44.692;39.214;2023-12-20T09:37:38;13.52;65.76
64924;HTU21D;51436;44.692;39.214;2023-12-20T09:40:09;13.54;65.75
64924;HTU21D;51436;44.692;39.214;2023-12-20T09:43:00;13.59;65.64
64924;HTU21D;51436;44.692;39.214;2023-12-20T09:45:32;13.61;65.57
64924;HTU21D;51436;44.692;39.214;2023-12-20T09:48:05;13.63;65.56
64924;HTU21D;51436;44.692;39.214;2023-12-20T09:50:32;13.67;65.48
64924;HTU21D;51436;44.692;39.214;2023-12-20T09:53:01;13.71;65.42
64924;HTU21D;51436;44.692;39.214;2023-12-20T09:55:29;13.73;65.40
64924;HTU21D;51436;44.692;39.214;2023-12-20T09:57:56;13.74;65.39
64924;HTU21D;51436;44.692;39.214;2023-12-20T10:00:22;13.77;65.32
64924;HTU21D;51436;44.692;39.214;2023-12-20T10:02:59;13.79;65.24
64924;HTU21D;51436;44.692;39.214;2023-12-20T10:05:30;13.80;65.26
64924;HTU21D;51436;44.692;39.214;2023-12-20T10:07:57;13.81;65.21
64924;HTU21D;51436;44.692;39.214;2023-12-20T10:10:24;13.83;65.19
64924;HTU21D;51436;44.692;39.214;2023-12-20T10:13:04;13.85;65.17
64924;HTU21D;51436;44.692;39.214;2023-12-20T10:15:31;13.86;65.13
64924;HTU21D;51436;44.692;39.214;2023-12-20T10:17:58;13.89;65.09
64924;HTU21D;51436;44.692;39.214;2023-12-20T10:20:25;13.90;65.07
64924;HTU21D;51436;44.692;39.214;2023-12-20T10:22:52;13.90;65.08
64924;HTU21D;51436;44.692;39.214;2023-12-20T10:25:22;13.93;65.02
64924;HTU21D;51436;44.692;39.214;2023-12-20T10:27:49;13.93;64.99
64924;HTU21D;51436;44.692;39.214;2023-12-20T10:30:16;13.96;64.92
64924;HTU21D;51436;44.692;39.214;2023-12-20T10:32:42;14.00;64.83
64924;HTU21D;51436;44.692;39.214;2023-12-20T10:35:09;14.01;64.79
64924;HTU21D;51436;44.692;39.214;2023-12-20T10:37:38;14.08;64.73
64924;HTU21D;51436;44.692;39.214;2023-12-20T10:40:05;14.08;64.69
64924;HTU21D;51436;44.692;39.214;2023-12-20T10:42:32;14.09;64.66
64924;HTU21D;51436;44.692;39.214;2023-12-20T10:45:00;14.11;64.64
64924;HTU21D;51436;44.692;39.214;2023-12-20T10:47:28;14.11;64.61
64924;HTU21D;51436;44.692;39.214;2023-12-20T10:49:59;14.11;64.62
64924;HTU21D;51436;44.692;39.214;2023-12-20T10:52:28;14.11;64.60
64924;HTU21D;51436;44.692;39.214;2023-12-20T10:54:55;14.14;64.55
64924;HTU21D;51436;44.692;39.214;2023-12-20T10:57:22;14.15;64.50
64924;HTU21D;51436;44.692;39.214;2023-12-20T10:59:49;14.17;64.50
64924;HTU21D;51436;44.692;39.214;2023-12-20T11:02:20;14.14;64.48
64924;HTU21D;51436;44.692;39.214;2023-12-20T11:04:50;14.15;64.45
64924;HTU21D;51436;44.692;39.214;2023-12-20T11:07:45;14.18;64.40
64924;HTU21D;51436;44.692;39.214;2023-12-20T11:10:25;14.19;64.37
64924;HTU21D;51436;44.692;39.214;2023-12-20T11:12:57;14.18;64.40
64924;HTU21D;51436;44.692;39.214;2023-12-20T11:15:28;14.17;64.37
64924;HTU21D;51436;44.692;39.214;2023-12-20T11:17:59;14.18;64.34
64924;HTU21D;51436;44.692;39.214;2023-12-20T11:20:40;14.19;64.32
64924;HTU21D;51436;44.692;39.214;2023-12-20T11:23:08;14.18;64.29
64924;HTU21D;51436;44.692;39.214;2023-12-20T11:28:13;14.19;64.22
64924;HTU21D;51436;44.692;39.214;2023-12-20T11:30:47;14.19;64.20
64924;HTU21D;51436;44.692;39.214;2023-12-20T11:33:14;14.21;64.16
64924;HTU21D;51436;44.692;39.214;2023-12-20T11:35:43;14.20;64.18
64924;HTU21D;51436;44.692;39.214;2023-12-20T11:38:11;14.17;64.18
64924;HTU21D;51436;44.692;39.214;2023-12-20T11:40:42;14.15;64.19
64924;HTU21D;51436;44.692;39.214;2023-12-20T11:43:08;14.14;64.18
64924;HTU21D;51436;44.692;39.214;2023-12-20T11:45:35;14.12;64.15
64924;HTU21D;51436;44.692;39.214;2023-12-20T11:48:24;14.13;64.14
64924;HTU21D;51436;44.692;39.214;2023-12-20T11:50:50;14.13;64.09
64924;HTU21D;51436;44.692;39.214;2023-12-20T11:53:17;14.11;64.11
64924;HTU21D;51436;44.692;39.214;2023-12-20T11:55:48;14.10;64.10
64924;HTU21D;51436;44.692;39.214;2023-12-20T11:58:15;14.08;64.08
64924;HTU21D;51436;44.692;39.214;2023-12-20T12:01:10;14.06;64.11
64924;HTU21D;51436;44.692;39.214;2023-12-20T12:03:37;14.07;64.06
64924;HTU21D;51436;44.692;39.214;2023-12-20T12:06:04;14.07;64.01
64924;HTU21D;51436;44.692;39.214;2023-12-20T12:08:30;14.04;64.00
64924;HTU21D;51436;44.692;39.214;2023-12-20T12:10:57;14.03;64.00
64924;HTU21D;51436;44.692;39.214;2023-12-20T12:13:23;14.01;63.98
64924;HTU21D;51436;44.692;39.214;2023-12-20T12:15:53;13.99;63.99
64924;HTU21D;51436;44.692;39.214;2023-12-20T12:18:20;13.97;64.00
64924;HTU21D;51436;44.692;39.214;2023-12-20T12:20:47;13.96;64.00
64924;HTU21D;51436;44.692;39.214;2023-12-20T12:23:13;13.95;63.97
64924;HTU21D;51436;44.692;39.214;2023-12-20T12:25:40;13.95;63.92
64924;HTU21D;51436;44.692;39.214;2023-12-20T12:28:07;13.93;63.89
64924;HTU21D;51436;44.692;39.214;2023-12-20T12:30:33;13.91;63.90
64924;HTU21D;51436;44.692;39.214;2023-12-20T12:32:59;13.89;63.91
64924;HTU21D;51436;44.692;39.214;2023-12-20T12:35:26;13.85;63.91
64924;HTU21D;51436;44.692;39.214;2023-12-20T12:37:53;13.81;63.95
64924;HTU21D;51436;44.692;39.214;2023-12-20T12:40:19;13.75;64.00
64924;HTU21D;51436;44.692;39.214;2023-12-20T12:42:46;13.71;64.01
64924;HTU21D;51436;44.692;39.214;2023-12-20T12:45:12;13.70;64.00
64924;HTU21D;51436;44.692;39.214;2023-12-20T12:47:39;13.66;63.98
64924;HTU21D;51436;44.692;39.214;2023-12-20T12:50:09;13.66;63.97
64924;HTU21D;51436;44.692;39.214;2023-12-20T12:52:35;13.61;63.99
64924;HTU21D;51436;44.692;39.214;2023-12-20T12:55:01;13.55;64.03
64924;HTU21D;51436;44.692;39.214;2023-12-20T12:57:29;13.52;64.05
64924;HTU21D;51436;44.692;39.214;2023-12-20T12:59:55;13.47;64.08
64924;HTU21D;51436;44.692;39.214;2023-12-20T13:02:24;13.45;64.09
64924;HTU21D;51436;44.692;39.214;2023-12-20T13:04:50;13.38;64.12
64924;HTU21D;51436;44.692;39.214;2023-12-20T13:07:17;13.34;64.13
64924;HTU21D;51436;44.692;39.214;2023-12-20T13:09:43;13.31;64.15
64924;HTU21D;51436;44.692;39.214;2023-12-20T13:12:10;13.26;64.16
64924;HTU21D;51436;44.692;39.214;2023-12-20T13:14:36;13.23;64.16
64924;HTU21D;51436;44.692;39.214;2023-12-20T13:17:06;13.20;64.16
64924;HTU21D;51436;44.692;39.214;2023-12-20T13:19:33;13.17;64.19
64924;HTU21D;51436;44.692;39.214;2023-12-20T13:21:59;13.11;64.22
64924;HTU21D;51436;44.692;39.214;2023-12-20T13:24:25;13.05;64.27
64924;HTU21D;51436;44.692;39.214;2023-12-20T13:26:52;12.99;64.35
64924;HTU21D;51436;44.692;39.214;2023-12-20T13:29:21;12.90;64.47
64924;HTU21D;51436;44.692;39.214;2023-12-20T13:31:54;12.85;64.52
64924;HTU21D;51436;44.692;39.214;2023-12-20T13:34:23;12.77;64.57
64924;HTU21D;51436;44.692;39.214;2023-12-20T13:36:49;12.72;64.61
64924;HTU21D;51436;44.692;39.214;2023-12-20T13:39:16;12.66;64.66
64924;HTU21D;51436;44.692;39.214;2023-12-20T13:41:45;12.60;64.70
64924;HTU21D;51436;44.692;39.214;2023-12-20T13:44:17;12.56;64.76
64924;HTU21D;51436;44.692;39.214;2023-12-20T13:46:43;12.47;64.82
64924;HTU21D;51436;44.692;39.214;2023-12-20T13:49:11;12.43;64.86
64924;HTU21D;51436;44.692;39.214;2023-12-20T13:51:57;12.34;64.92
64924;HTU21D;51436;44.692;39.214;2023-12-20T13:54:24;12.28;64.97
64924;HTU21D;51436;44.692;39.214;2023-12-20T13:56:51;12.21;65.04
64924;HTU21D;51436;44.692;39.214;2023-12-20T13:59:17;12.15;65.08
64924;HTU21D;51436;44.692;39.214;2023-12-20T14:01:44;12.11;65.12
64924;HTU21D;51436;44.692;39.214;2023-12-20T14:04:10;12.05;65.14
64924;HTU21D;51436;44.692;39.214;2023-12-20T14:06:37;11.97;65.22
64924;HTU21D;51436;44.692;39.214;2023-12-20T14:09:04;11.91;65.28
64924;HTU21D;51436;44.692;39.214;2023-12-20T14:11:30;11.87;65.28
64924;HTU21D;51436;44.692;39.214;2023-12-20T14:13:56;11.83;65.31
64924;HTU21D;51436;44.692;39.214;2023-12-20T14:16:24;11.77;65.34
64924;HTU21D;51436;44.692;39.214;2023-12-20T14:18:50;11.70;65.40
64924;HTU21D;51436;44.692;39.214;2023-12-20T14:21:22;11.60;65.49
64924;HTU21D;51436;44.692;39.214;2023-12-20T14:23:50;11.48;65.59
64924;HTU21D;51436;44.692;39.214;2023-12-20T14:26:17;11.38;65.75
64924;HTU21D;51436;44.692;39.214;2023-12-20T14:28:44;11.31;65.78
64924;HTU21D;51436;44.692;39.214;2023-12-20T14:31:10;11.29;65.78
64924;HTU21D;51436;44.692;39.214;2023-12-20T14:33:36;11.24;65.81
64924;HTU21D;51436;44.692;39.214;2023-12-20T14:36:05;11.17;65.82
64924;HTU21D;51436;44.692;39.214;2023-12-20T14:38:32;11.14;65.85
64924;HTU21D;51436;44.692;39.214;2023-12-20T14:40:58;11.10;65.87
64924;HTU21D;51436;44.692;39.214;2023-12-20T14:43:26;11.00;65.98
64924;HTU21D;51436;44.692;39.214;2023-12-20T14:46:33;10.96;66.06
64924;HTU21D;51436;44.692;39.214;2023-12-20T14:49:02;10.84;66.21
64924;HTU21D;51436;44.692;39.214;2023-12-20T14:51:28;10.79;66.25
64924;HTU21D;51436;44.692;39.214;2023-12-20T14:53:55;10.73;66.34
64924;HTU21D;51436;44.692;39.214;2023-12-20T14:56:23;10.68;66.36
64924;HTU21D;51436;44.692;39.214;2023-12-20T14:58:49;10.65;66.35
64924;HTU21D;51436;44.692;39.214;2023-12-20T15:01:16;10.59;66.40
64924;HTU21D;51436;44.692;39.214;2023-12-20T15:03:46;10.52;66.52
64924;HTU21D;51436;44.692;39.214;2023-12-20T15:06:12;10.45;66.63
64924;HTU21D;51436;44.692;39.214;2023-12-20T15:08:39;10.43;66.61
64924;HTU21D;51436;44.692;39.214;2023-12-20T15:11:05;10.41;66.59
64924;HTU21D;51436;44.692;39.214;2023-12-20T15:13:31;10.39;66.59